Time;durP1;ratioP1;P1;durP2;ratioP2;P2;SDS_P1;SDS_P2;PMS_P1;PMS_P2;Temp;Humidity;BMP_temperature;BMP_pressure;BME280_temperature;BME280_humidity;BME280_pressure;Samples;Min_cycle;Max_cycle;Signal;HPM_P1;HPM_P2
2022/10/30 00:00:54;;;;;;;;;;;;;;;12.79;100.00;100708.72;3056616;19;19915;-47
2022/10/30 00:01:58;;;;;;;;;;;;;;;12.79;100.00;100706.03;3057027;19;20170;-50
2022/10/30 00:03:00;;;;;;;;;;;;;;;12.79;100.00;100698.00;3056402;19;19931;-48
2022/10/30 00:04:06;;;;;;;;;;;;;;;12.79;100.00;100692.66;3057818;19;19982;-49
2022/10/30 00:05:08;;;;;;;;;;;;;;;12.81;100.00;100696.06;3057196;19;19950;-52
2022/10/30 00:06:12;;;;;;;;;;;;;;;12.83;100.00;100699.50;3057610;19;20299;-47
2022/10/30 00:07:14;;;;;;;;;;;;;;;12.85;100.00;100694.91;3057516;19;19942;-48
2022/10/30 00:08:19;;;;;;;;;;;;;;;12.87;100.00;100693.84;3057365;19;20479;-50
2022/10/30 00:09:21;;;;;;;;;;;;;;;12.91;100.00;100697.19;3057355;19;19911;-48
2022/10/30 00:10:25;;;;;;;;;;;;;;;12.94;100.00;100694.25;3057201;19;19927;-47
2022/10/30 00:11:28;;;;;;;;;;;;;;;12.97;100.00;100691.38;3057446;19;19919;-50
2022/10/30 00:12:32;;;;;;;;;;;;;;;12.99;100.00;100687.66;3057411;19;19927;-47
2022/10/30 00:13:34;;;;;;;;;;;;;;;13.04;100.00;100681.13;3057290;19;19915;-46
2022/10/30 00:14:38;;;;;;;;;;;;;;;13.06;100.00;100685.38;3056642;19;19934;-50
2022/10/30 00:15:45;;;;;;;;;;;;;;;13.08;100.00;100678.09;3056629;19;19919;-50
2022/10/30 00:16:50;;;;;;;;;;;;;;;13.11;100.00;100685.94;3057770;19;19923;-47
2022/10/30 00:17:52;;;;;;;;;;;;;;;13.13;100.00;100686.69;3057077;19;20357;-52
2022/10/30 00:18:56;;;;;;;;;;;;;;;13.13;100.00;100697.41;3056336;19;20020;-48
2022/10/30 00:19:58;;;;;;;;;;;;;;;13.13;100.00;100697.41;3056681;19;19922;-49
2022/10/30 00:21:06;;;;;;;;;;;;;;;13.14;100.00;100696.50;3057264;19;19919;-49
2022/10/30 00:22:09;;;;;;;;;;;;;;;13.15;100.00;100700.88;3056282;19;19923;-50
2022/10/30 00:23:13;;;;;;;;;;;;;;;13.15;100.00;100690.16;3056548;19;19930;-49
2022/10/30 00:24:15;;;;;;;;;;;;;;;13.16;100.00;100686.50;3057210;19;19958;-47
2022/10/30 00:25:19;;;;;;;;;;;;;;;13.16;100.00;100686.50;3057089;19;19957;-49
2022/10/30 00:26:22;;;;;;;;;;;;;;;13.17;100.00;100682.84;3057115;19;19918;-46
2022/10/30 00:27:26;;;;;;;;;;;;;;;13.17;100.00;100677.50;3057280;19;19923;-49
2022/10/30 00:28:28;;;;;;;;;;;;;;;13.19;100.00;100672.91;3056889;19;19918;-51
2022/10/30 00:29:32;;;;;;;;;;;;;;;13.19;100.00;100680.94;3057288;19;19918;-48
2022/10/30 00:30:34;;;;;;;;;;;;;;;13.20;100.00;100682.66;3055596;19;19987;-50
2022/10/30 00:31:39;;;;;;;;;;;;;;;13.21;100.00;100689.72;3054272;19;20500;-47
2022/10/30 00:32:41;;;;;;;;;;;;;;;13.22;100.00;100696.81;3056666;19;19973;-49
2022/10/30 00:33:46;;;;;;;;;;;;;;;13.23;100.00;100714.59;3056785;19;20409;-48
2022/10/30 00:34:47;;;;;;;;;;;;;;;13.23;100.00;100709.25;3056867;19;20551;-48
2022/10/30 00:35:52;;;;;;;;;;;;;;;13.23;100.00;100703.03;3056247;19;19918;-49
2022/10/30 00:36:53;;;;;;;;;;;;;;;13.17;100.00;100709.66;3056691;19;19942;-49
2022/10/30 00:37:58;;;;;;;;;;;;;;;13.22;100.00;100712.03;3056279;19;19935;-47
2022/10/30 00:39:00;;;;;;;;;;;;;;;13.16;100.00;100707.94;3056417;19;19930;-49
2022/10/30 00:40:06;;;;;;;;;;;;;;;13.15;100.00;100706.25;3057019;19;19930;-50
2022/10/30 00:41:12;;;;;;;;;;;;;;;13.17;100.00;100703.44;3057105;19;19993;-46
2022/10/30 00:42:17;;;;;;;;;;;;;;;13.12;100.00;100690.34;3057595;19;19947;-45
2022/10/30 00:43:27;;;;;;;;;;;;;;;13.19;100.00;100699.69;3057213;19;19926;-49
2022/10/30 00:44:52;;;;;;;;;;;;;;;13.21;100.00;100700.44;3055999;19;19919;-46
2022/10/30 00:45:54;;;;;;;;;;;;;;;13.27;100.00;100705.41;3056673;19;19919;-49
2022/10/30 00:46:58;;;;;;;;;;;;;;;13.28;100.00;100704.41;3055976;19;19918;-46
2022/10/30 00:48:00;;;;;;;;;;;;;;;13.29;100.00;100698.09;3056195;19;19930;-47
2022/10/30 00:49:12;;;;;;;;;;;;;;;13.30;100.00;100699.81;3055833;19;19941;-51
2022/10/30 00:50:16;;;;;;;;;;;;;;;13.30;100.00;100694.44;3056120;19;19919;-48
2022/10/30 00:51:22;;;;;;;;;;;;;;;13.30;100.00;100689.09;3055746;19;19915;-50
2022/10/30 00:52:24;;;;;;;;;;;;;;;13.31;100.00;100696.16;3056144;19;19932;-49
2022/10/30 00:53:29;;;;;;;;;;;;;;;13.31;100.00;100696.16;3055308;19;19949;-49
2022/10/30 00:54:31;;;;;;;;;;;;;;;13.29;100.00;100690.03;3055701;19;19923;-47
2022/10/30 00:55:36;;;;;;;;;;;;;;;13.30;100.00;100683.72;3054122;19;20290;-49
2022/10/30 00:56:38;;;;;;;;;;;;;;;13.30;100.00;100677.50;3055550;19;19926;-45
2022/10/30 00:57:43;;;;;;;;;;;;;;;13.30;100.00;100683.72;3055463;19;19918;-46
2022/10/30 00:59:14;;;;;;;;;;;;;;;13.30;100.00;100694.44;3056002;19;19915;-50
2022/10/30 01:00:19;;;;;;;;;;;;;;;13.34;100.00;100695.97;3055208;19;19919;-50
2022/10/30 01:01:21;;;;;;;;;;;;;;;13.36;100.00;100703.03;3055671;19;19919;-50
2022/10/30 01:02:25;;;;;;;;;;;;;;;13.36;100.00;100705.72;3056132;19;19928;-50
2022/10/30 01:03:27;;;;;;;;;;;;;;;13.36;100.00;100703.03;3055449;19;19935;-45
2022/10/30 01:04:32;;;;;;;;;;;;;;;13.37;100.00;100710.13;3055622;19;19942;-50
2022/10/30 01:05:34;;;;;;;;;;;;;;;13.37;100.00;100708.28;3056010;19;20026;-50
2022/10/30 01:06:40;;;;;;;;;;;;;;;13.37;100.00;100705.63;3056141;19;19964;-50
2022/10/30 01:07:42;;;;;;;;;;;;;;;13.37;100.00;100710.97;3055774;19;19967;-46
2022/10/30 01:08:47;;;;;;;;;;;;;;;13.38;100.00;100701.97;3056271;19;19930;-49
2022/10/30 01:09:49;;;;;;;;;;;;;;;13.38;100.00;100698.44;3055440;19;19933;-48
2022/10/30 01:10:54;;;;;;;;;;;;;;;13.40;100.00;100704.53;3056256;19;20668;-50
2022/10/30 01:11:57;;;;;;;;;;;;;;;13.41;100.00;100700.88;3055460;19;19914;-50
2022/10/30 01:13:01;;;;;;;;;;;;;;;13.42;100.00;100698.09;3055704;19;20349;-51
2022/10/30 01:14:03;;;;;;;;;;;;;;;13.42;100.00;100697.22;3055293;19;19944;-50
2022/10/30 01:15:08;;;;;;;;;;;;;;;13.43;100.00;100694.44;3055791;19;20286;-51
2022/10/30 01:16:40;;;;;;;;;;;;;;;13.45;100.00;100702.38;3055256;19;19919;-47
2022/10/30 01:17:53;;;;;;;;;;;;;;;13.47;100.00;100700.47;3054604;19;20404;-50
2022/10/30 01:18:59;;;;;;;;;;;;;;;13.49;100.00;100698.53;3055775;19;19922;-48
2022/10/30 01:20:04;;;;;;;;;;;;;;;13.49;100.00;100699.38;3055397;19;19932;-50
2022/10/30 01:21:22;;;;;;;;;;;;;;;13.51;100.00;100701.97;3055695;19;20269;-48
2022/10/30 01:22:46;;;;;;;;;;;;;;;13.52;100.00;100709.06;3055592;19;19940;-50
2022/10/30 01:23:53;;;;;;;;;;;;;;;13.52;100.00;100703.69;3055318;19;20022;-50
2022/10/30 01:24:58;;;;;;;;;;;;;;;13.52;100.00;100709.06;3055602;19;19940;-48
2022/10/30 01:26:21;;;;;;;;;;;;;;;13.51;100.00;100705.50;3055593;19;19918;-48
2022/10/30 01:27:38;;;;;;;;;;;;;;;13.52;100.00;100712.59;3056033;19;20257;-51
2022/10/30 01:29:03;;;;;;;;;;;;;;;13.53;100.00;100705.38;3055272;19;19923;-50
2022/10/30 01:30:11;;;;;;;;;;;;;;;13.53;100.00;100713.41;3055967;19;19931;-48
2022/10/30 01:31:35;;;;;;;;;;;;;;;13.55;100.00;100711.50;3055898;19;19927;-46
2022/10/30 01:32:40;;;;;;;;;;;;;;;13.54;100.00;100723.19;3055639;19;19930;-49
2022/10/30 01:33:52;;;;;;;;;;;;;;;13.53;100.00;100719.63;3055568;19;19939;-48
2022/10/30 01:34:57;;;;;;;;;;;;;;;13.53;100.00;100726.81;3055396;19;19911;-52
2022/10/30 01:36:05;;;;;;;;;;;;;;;13.51;100.00;100728.78;3055267;19;20008;-47
2022/10/30 01:37:36;;;;;;;;;;;;;;;13.49;100.00;100726.19;3055276;19;20039;-50
2022/10/30 01:38:49;;;;;;;;;;;;;;;13.47;100.00;100728.13;3054667;19;19923;-49
2022/10/30 01:39:53;;;;;;;;;;;;;;;13.47;100.00;100727.28;3055899;19;19942;-47
2022/10/30 01:40:55;;;;;;;;;;;;;;;13.47;100.00;100727.28;3055220;19;19985;-48
2022/10/30 01:42:00;;;;;;;;;;;;;;;13.47;100.00;100729.94;3055386;19;19958;-50
2022/10/30 01:43:01;;;;;;;;;;;;;;;13.47;100.00;100729.94;3054348;19;19939;-49
2022/10/30 01:44:20;;;;;;;;;;;;;;;13.48;100.00;100731.66;3056069;19;19936;-49
2022/10/30 01:45:42;;;;;;;;;;;;;;;13.48;100.00;100739.72;3055272;19;20549;-50
2022/10/30 01:46:49;;;;;;;;;;;;;;;13.49;100.00;100733.38;3055587;19;19919;-48
2022/10/30 01:48:01;;;;;;;;;;;;;;;13.47;100.00;100728.13;3055311;19;19942;-48
2022/10/30 01:49:26;;;;;;;;;;;;;;;13.48;100.00;100729.84;3055322;19;19915;-48
2022/10/30 01:50:30;;;;;;;;;;;;;;;13.48;100.00;100724.50;3054766;19;20282;-50
2022/10/30 01:51:39;;;;;;;;;;;;;;;13.49;100.00;100730.72;3054837;19;19924;-47
2022/10/30 01:52:44;;;;;;;;;;;;;;;13.48;100.00;100729.84;3055247;19;19919;-49
2022/10/30 01:54:05;;;;;;;;;;;;;;;13.49;100.00;100726.19;3054974;19;19922;-46
2022/10/30 01:55:15;;;;;;;;;;;;;;;13.51;100.00;100728.78;3055278;19;19923;-49
2022/10/30 01:56:25;;;;;;;;;;;;;;;13.51;100.00;100724.28;3054459;19;19922;-48
2022/10/30 01:57:49;;;;;;;;;;;;;;;13.53;100.00;100732.19;3055018;19;19943;-48
2022/10/30 01:58:55;;;;;;;;;;;;;;;13.55;100.00;100724.91;3055725;19;19945;-50
2022/10/30 02:00:09;;;;;;;;;;;;;;;13.56;100.00;100723.94;3055099;19;19922;-48
2022/10/30 02:01:14;;;;;;;;;;;;;;;13.57;100.00;100720.28;3055619;19;19919;-51
2022/10/30 02:02:19;;;;;;;;;;;;;;;13.58;100.00;100725.56;3055195;19;19931;-49
2022/10/30 02:03:21;;;;;;;;;;;;;;;13.59;100.00;100715.69;3055152;19;19924;-50
2022/10/30 02:04:26;;;;;;;;;;;;;;;13.60;100.00;100722.75;3054863;19;20324;-50
2022/10/30 02:05:34;;;;;;;;;;;;;;;13.61;100.00;100724.50;3055746;19;19918;-48
2022/10/30 02:06:38;;;;;;;;;;;;;;;13.61;100.00;100732.53;3055529;19;20332;-50
2022/10/30 02:07:41;;;;;;;;;;;;;;;13.60;100.00;100729.00;3055102;19;19919;-51
2022/10/30 02:08:46;;;;;;;;;;;;;;;13.61;100.00;100729.84;3055066;19;20251;-46
2022/10/30 02:09:50;;;;;;;;;;;;;;;13.59;100.00;100727.28;3054723;19;20878;-51
2022/10/30 02:10:54;;;;;;;;;;;;;;;13.60;100.00;100729.00;3054899;19;19925;-50
2022/10/30 02:12:09;;;;;;;;;;;;;;;13.61;100.00;100727.16;3054953;19;20016;-46
2022/10/30 02:13:14;;;;;;;;;;;;;;;13.61;100.00;100721.81;3054514;19;19999;-49
2022/10/30 02:14:21;;;;;;;;;;;;;;;13.62;100.00;100720.84;3054809;19;19982;-47
2022/10/30 02:15:25;;;;;;;;;;;;;;;13.60;100.00;100723.63;3055094;19;19927;-46
2022/10/30 02:16:27;;;;;;;;;;;;;;;13.60;100.00;100728.13;3054579;19;19939;-50
2022/10/30 02:17:32;;;;;;;;;;;;;;;13.53;100.00;100718.78;3055051;19;19938;-48
2022/10/30 02:18:34;;;;;;;;;;;;;;;13.60;100.00;100734.34;3055011;19;20348;-51
2022/10/30 02:19:39;;;;;;;;;;;;;;;13.61;100.00;100725.34;3055279;19;19922;-50
2022/10/30 02:20:41;;;;;;;;;;;;;;;13.60;100.00;100725.44;3054597;19;20289;-46
2022/10/30 02:21:45;;;;;;;;;;;;;;;13.61;100.00;100729.84;3055649;19;19990;-44
2022/10/30 02:22:47;;;;;;;;;;;;;;;13.61;100.00;100724.50;3054673;19;20664;-50
2022/10/30 02:23:57;;;;;;;;;;;;;;;13.61;100.00;100730.72;3055300;19;19946;-48
2022/10/30 02:24:59;;;;;;;;;;;;;;;13.63;100.00;100735.97;3054824;19;20324;-51
2022/10/30 02:26:04;;;;;;;;;;;;;;;13.63;100.00;100727.91;3054810;19;19923;-50
2022/10/30 02:27:06;;;;;;;;;;;;;;;13.63;100.00;100727.91;3055432;19;19946;-51
2022/10/30 02:28:10;;;;;;;;;;;;;;;13.63;100.00;100727.91;3054460;19;19929;-49
2022/10/30 02:29:12;;;;;;;;;;;;;;;13.63;100.00;100730.59;3054914;19;19919;-49
2022/10/30 02:30:18;;;;;;;;;;;;;;;13.61;100.00;100719.97;3055116;19;19933;-51
2022/10/30 02:31:20;;;;;;;;;;;;;;;13.61;100.00;100724.50;3054529;19;19923;-51
2022/10/30 02:32:24;;;;;;;;;;;;;;;13.60;100.00;100717.41;3054929;19;19935;-46
2022/10/30 02:33:26;;;;;;;;;;;;;;;13.61;100.00;100721.81;3055280;19;19919;-52
2022/10/30 02:34:31;;;;;;;;;;;;;;;13.60;100.00;100706.69;3055846;19;19926;-45
2022/10/30 02:35:34;;;;;;;;;;;;;;;13.53;100.00;100705.38;3054639;19;19992;-49
2022/10/30 02:36:39;;;;;;;;;;;;;;;13.58;100.00;100709.47;3054921;19;20338;-47
2022/10/30 02:37:41;;;;;;;;;;;;;;;13.58;100.00;100713.97;3054723;19;19919;-50
2022/10/30 02:38:46;;;;;;;;;;;;;;;13.58;100.00;100713.97;3055018;19;19935;-50
2022/10/30 02:39:47;;;;;;;;;;;;;;;13.57;100.00;100717.59;3054642;19;20305;-49
2022/10/30 02:40:52;;;;;;;;;;;;;;;13.58;100.00;100719.34;3054891;19;19936;-48
2022/10/30 02:41:54;;;;;;;;;;;;;;;13.56;100.00;100721.25;3055748;19;19923;-47
2022/10/30 02:42:58;;;;;;;;;;;;;;;13.55;100.00;100724.91;3054487;19;19922;-48
2022/10/30 02:44:00;;;;;;;;;;;;;;;13.54;100.00;100725.88;3054717;19;20018;-48
2022/10/30 02:45:06;;;;;;;;;;;;;;;13.54;100.00;100733.91;3054964;19;19942;-49
2022/10/30 02:46:08;;;;;;;;;;;;;;;13.53;100.00;100737.56;3054798;19;19918;-50
2022/10/30 02:47:12;;;;;;;;;;;;;;;13.52;100.00;100730.50;3054599;19;20365;-47
2022/10/30 02:48:14;;;;;;;;;;;;;;;13.51;100.00;100734.16;3054131;19;20373;-49
2022/10/30 02:49:18;;;;;;;;;;;;;;;13.51;100.00;100732.31;3054306;19;19931;-46
2022/10/30 02:50:20;;;;;;;;;;;;;;;13.51;100.00;100729.66;3055907;19;20342;-46
2022/10/30 02:51:25;;;;;;;;;;;;;;;13.51;100.00;100728.78;3055452;19;19942;-47
2022/10/30 02:52:26;;;;;;;;;;;;;;;13.51;100.00;100723.41;3054888;19;19950;-47
2022/10/30 02:53:31;;;;;;;;;;;;;;;13.51;100.00;100724.28;3054191;19;19942;-49
2022/10/30 02:54:33;;;;;;;;;;;;;;;13.51;100.00;100736.81;3055531;19;19930;-49
2022/10/30 02:55:38;;;;;;;;;;;;;;;13.49;100.00;100726.19;3057091;19;20010;-50
2022/10/30 02:56:40;;;;;;;;;;;;;;;13.53;100.00;100732.19;3057833;19;19919;-52
2022/10/30 02:57:44;;;;;;;;;;;;;;;13.53;100.00;100732.19;3056685;19;19923;-50
2022/10/30 02:58:46;;;;;;;;;;;;;;;13.53;100.00;100732.19;3057492;19;19926;-48
2022/10/30 02:59:51;;;;;;;;;;;;;;;13.53;100.00;100735.72;3057381;19;19946;-48
2022/10/30 03:00:53;;;;;;;;;;;;;;;13.52;100.00;100730.50;3057827;19;19923;-50
2022/10/30 03:01:57;;;;;;;;;;;;;;;13.52;100.00;100735.88;3057463;19;19926;-47
2022/10/30 03:02:59;;;;;;;;;;;;;;;13.52;100.00;100735.88;3057626;19;19926;-50
2022/10/30 03:04:03;;;;;;;;;;;;;;;13.51;100.00;100734.16;3055973;19;19922;-50
2022/10/30 03:05:07;;;;;;;;;;;;;;;13.51;100.00;100740.38;3057860;19;19922;-45
2022/10/30 03:06:12;;;;;;;;;;;;;;;13.51;100.00;100739.50;3058036;19;20041;-47
2022/10/30 03:07:14;;;;;;;;;;;;;;;13.50;100.00;100746.69;3057170;19;20380;-50
2022/10/30 03:08:18;;;;;;;;;;;;;;;13.50;100.00;100743.16;3056902;19;19979;-47
2022/10/30 03:09:20;;;;;;;;;;;;;;;13.49;100.00;100734.25;3057722;19;20429;-50
2022/10/30 03:10:24;;;;;;;;;;;;;;;13.51;100.00;100734.16;3057541;19;19971;-48
2022/10/30 03:11:26;;;;;;;;;;;;;;;13.51;100.00;100728.78;3057488;19;20344;-47
2022/10/30 03:12:31;;;;;;;;;;;;;;;13.49;100.00;100739.59;3057321;19;19919;-52
2022/10/30 03:13:34;;;;;;;;;;;;;;;13.49;100.00;100730.72;3057382;19;20277;-49
2022/10/30 03:14:38;;;;;;;;;;;;;;;13.48;100.00;100739.72;3057176;19;19915;-48
2022/10/30 03:15:40;;;;;;;;;;;;;;;13.49;100.00;100736.06;3057803;19;20206;-48
2022/10/30 03:16:44;;;;;;;;;;;;;;;13.46;100.00;100741.63;3056735;19;19919;-47
2022/10/30 03:17:46;;;;;;;;;;;;;;;13.44;100.00;100743.56;3056928;19;19941;-48
2022/10/30 03:18:53;;;;;;;;;;;;;;;13.43;100.00;100749.88;3056956;19;20112;-46
2022/10/30 03:19:54;;;;;;;;;;;;;;;13.39;100.00;100743.03;3057651;19;19923;-50
2022/10/30 03:21:00;;;;;;;;;;;;;;;13.37;100.00;100745.81;3057187;19;19925;-46
2022/10/30 03:22:02;;;;;;;;;;;;;;;13.33;100.00;100739.81;3057578;19;19926;-48
2022/10/30 03:23:06;;;;;;;;;;;;;;;13.33;100.00;100747.84;3057488;19;19915;-47
2022/10/30 03:24:08;;;;;;;;;;;;;;;13.32;100.00;100748.81;3057506;19;19930;-50
2022/10/30 03:25:12;;;;;;;;;;;;;;;13.32;100.00;100743.44;3056731;19;19926;-49
2022/10/30 03:26:14;;;;;;;;;;;;;;;13.33;100.00;100747.84;3057565;19;19927;-49
2022/10/30 03:27:26;;;;;;;;;;;;;;;13.34;100.00;100749.56;3057139;19;19929;-46
2022/10/30 03:28:29;;;;;;;;;;;;;;;13.36;100.00;100751.28;3057125;19;19927;-49
2022/10/30 03:29:34;;;;;;;;;;;;;;;13.38;100.00;100754.72;3057225;19;20002;-47
2022/10/30 03:30:37;;;;;;;;;;;;;;;13.31;100.00;100744.41;3057377;19;20353;-51
2022/10/30 03:31:41;;;;;;;;;;;;;;;13.39;100.00;100753.75;3056611;19;20367;-50
2022/10/30 03:32:53;;;;;;;;;;;;;;;13.38;100.00;100752.91;3057189;19;19930;-47
2022/10/30 03:33:57;;;;;;;;;;;;;;;13.40;100.00;100755.47;3056949;19;20306;-48
2022/10/30 03:34:59;;;;;;;;;;;;;;;13.39;100.00;100757.31;3057388;19;19943;-50
2022/10/30 03:36:04;;;;;;;;;;;;;;;13.41;100.00;100754.50;3055797;19;19914;-47
2022/10/30 03:37:06;;;;;;;;;;;;;;;13.40;100.00;100759.03;3058327;19;19914;-49
2022/10/30 03:38:10;;;;;;;;;;;;;;;13.38;100.00;100750.22;3056067;19;20634;-50
2022/10/30 03:39:12;;;;;;;;;;;;;;;13.38;100.00;100760.09;3057277;19;20050;-47
2022/10/30 03:40:19;;;;;;;;;;;;;;;13.40;100.00;100759.03;3057094;19;19918;-49
2022/10/30 03:41:21;;;;;;;;;;;;;;;13.40;100.00;100752.81;3057033;19;19935;-50
2022/10/30 03:42:25;;;;;;;;;;;;;;;13.42;100.00;100756.22;3056941;19;19923;-50
2022/10/30 03:43:27;;;;;;;;;;;;;;;13.43;100.00;100752.56;3056901;19;19949;-49
2022/10/30 03:44:31;;;;;;;;;;;;;;;13.44;100.00;100755.16;3057567;19;19919;-47
2022/10/30 03:45:33;;;;;;;;;;;;;;;13.46;100.00;100755.91;3056950;19;19927;-48
2022/10/30 03:46:41;;;;;;;;;;;;;;;13.47;100.00;100759.44;3057158;19;20055;-49
2022/10/30 03:47:54;;;;;;;;;;;;;;;13.51;100.00;100763.63;3056596;19;19925;-48
2022/10/30 03:48:59;;;;;;;;;;;;;;;13.52;100.00;100751.94;3056745;19;19919;-49
2022/10/30 03:50:00;;;;;;;;;;;;;;;13.55;100.00;100757.94;3056529;19;19975;-47
2022/10/30 03:51:05;;;;;;;;;;;;;;;13.58;100.00;100756.88;3056874;19;20526;-49
2022/10/30 03:52:08;;;;;;;;;;;;;;;13.58;100.00;100751.50;3056700;19;19919;-47
2022/10/30 03:53:12;;;;;;;;;;;;;;;13.60;100.00;100755.81;3057202;19;19978;-50
2022/10/30 03:54:14;;;;;;;;;;;;;;;13.60;100.00;100763.00;3056954;19;19918;-46
2022/10/30 03:55:19;;;;;;;;;;;;;;;13.61;100.00;100762.03;3056743;19;20047;-48
2022/10/30 03:56:22;;;;;;;;;;;;;;;13.62;100.00;100763.75;3055812;19;19931;-51
2022/10/30 03:57:30;;;;;;;;;;;;;;;13.65;100.00;100763.50;3057025;19;20329;-48
2022/10/30 03:58:42;;;;;;;;;;;;;;;13.66;100.00;100763.41;3055648;19;19939;-46
2022/10/30 03:59:49;;;;;;;;;;;;;;;13.68;100.00;100763.31;3057031;19;19923;-49
2022/10/30 04:01:04;;;;;;;;;;;;;;;13.68;100.00;100760.63;3056887;19;20297;-47
2022/10/30 04:02:11;;;;;;;;;;;;;;;13.70;100.00;100766.75;3057141;19;19922;-49
2022/10/30 04:03:13;;;;;;;;;;;;;;;13.72;100.00;100758.59;3056896;19;19915;-47
2022/10/30 04:04:19;;;;;;;;;;;;;;;13.72;100.00;100764.81;3056838;19;19918;-48
2022/10/30 04:05:21;;;;;;;;;;;;;;;13.73;100.00;100769.22;3056252;19;20321;-49
2022/10/30 04:06:28;;;;;;;;;;;;;;;13.74;100.00;100762.88;3056744;19;20361;-51
2022/10/30 04:07:30;;;;;;;;;;;;;;;13.73;100.00;100769.22;3056957;19;19918;-50
2022/10/30 04:08:35;;;;;;;;;;;;;;;13.73;100.00;100765.69;3056588;19;19915;-50
2022/10/30 04:09:38;;;;;;;;;;;;;;;13.74;100.00;100772.75;3056940;19;19922;-47
2022/10/30 04:10:46;;;;;;;;;;;;;;;13.72;100.00;100774.69;3056212;19;19929;-49
2022/10/30 04:11:48;;;;;;;;;;;;;;;13.72;100.00;100775.53;3057085;19;19923;-45
2022/10/30 04:12:53;;;;;;;;;;;;;;;13.70;100.00;100775.66;3056293;19;19942;-48
2022/10/30 04:13:56;;;;;;;;;;;;;;;13.69;100.00;100773.06;3056789;19;19939;-49
2022/10/30 04:15:01;;;;;;;;;;;;;;;13.70;100.00;100777.47;3056382;19;20265;-49
2022/10/30 04:16:03;;;;;;;;;;;;;;;13.69;100.00;100775.75;3056722;19;19968;-46
2022/10/30 04:17:09;;;;;;;;;;;;;;;13.71;100.00;100773.81;3056315;19;19922;-49
2022/10/30 04:18:36;;;;;;;;;;;;;;;13.69;100.00;100771.25;3056053;19;19931;-49
2022/10/30 04:19:39;;;;;;;;;;;;;;;13.70;100.00;100772.97;3056057;19;19954;-49
2022/10/30 04:20:44;;;;;;;;;;;;;;;13.72;100.00;100770.19;3056848;19;19938;-47
2022/10/30 04:21:46;;;;;;;;;;;;;;;13.73;100.00;100774.59;3056457;19;20017;-48
2022/10/30 04:22:55;;;;;;;;;;;;;;;13.73;100.00;100771.03;3056643;19;20692;-47
2022/10/30 04:24:00;;;;;;;;;;;;;;;13.73;100.00;100763.84;3056322;19;19938;-48
2022/10/30 04:25:05;;;;;;;;;;;;;;;13.73;100.00;100766.53;3056868;19;19986;-48
2022/10/30 04:26:09;;;;;;;;;;;;;;;13.73;100.00;100763.00;3056165;19;19930;-47
2022/10/30 04:27:14;;;;;;;;;;;;;;;13.71;100.00;100771.16;3056548;19;19926;-48
2022/10/30 04:28:20;;;;;;;;;;;;;;;13.70;100.00;100761.38;3056288;19;20352;-47
2022/10/30 04:29:21;;;;;;;;;;;;;;;13.70;100.00;100766.75;3057449;19;20284;-48
2022/10/30 04:30:26;;;;;;;;;;;;;;;13.69;100.00;100765.03;3057916;19;19945;-50
2022/10/30 04:31:28;;;;;;;;;;;;;;;13.68;100.00;100760.63;3056476;19;19922;-47
2022/10/30 04:32:32;;;;;;;;;;;;;;;13.67;100.00;100762.44;3056401;19;19995;-46
2022/10/30 04:33:34;;;;;;;;;;;;;;;13.68;100.00;100755.25;3055572;19;20463;-48
2022/10/30 04:34:40;;;;;;;;;;;;;;;13.68;100.00;100757.94;3056466;19;19926;-47
2022/10/30 04:35:42;;;;;;;;;;;;;;;13.67;100.00;100757.09;3056520;19;19949;-47
2022/10/30 04:36:52;;;;;;;;;;;;;;;13.67;100.00;100748.19;3056366;19;20302;-45
2022/10/30 04:37:55;;;;;;;;;;;;;;;13.68;100.00;100752.56;3056162;19;19922;-45
2022/10/30 04:38:59;;;;;;;;;;;;;;;13.67;100.00;100750.84;3055603;19;19930;-50
2022/10/30 04:40:02;;;;;;;;;;;;;;;13.66;100.00;100749.13;3056326;19;19990;-47
2022/10/30 04:41:13;;;;;;;;;;;;;;;13.66;100.00;100749.13;3056686;19;19986;-47
2022/10/30 04:42:26;;;;;;;;;;;;;;;13.66;100.00;100751.81;3056298;19;19923;-49
2022/10/30 04:43:30;;;;;;;;;;;;;;;13.66;100.00;100746.44;3055918;19;19918;-48
2022/10/30 04:44:32;;;;;;;;;;;;;;;13.65;100.00;100742.06;3056065;19;19984;-45
2022/10/30 04:45:36;;;;;;;;;;;;;;;13.66;100.00;100746.44;3056169;19;19922;-49
2022/10/30 04:46:38;;;;;;;;;;;;;;;13.64;100.00;100740.38;3056222;19;20023;-48
2022/10/30 04:47:45;;;;;;;;;;;;;;;13.62;100.00;100736.94;3056256;19;20369;-47
2022/10/30 04:48:47;;;;;;;;;;;;;;;13.62;100.00;100745.84;3055093;19;19945;-48
2022/10/30 04:49:52;;;;;;;;;;;;;;;13.61;100.00;100740.56;3055985;19;20416;-49
2022/10/30 04:50:53;;;;;;;;;;;;;;;13.60;100.00;100731.66;3055702;19;19919;-49
2022/10/30 04:52:00;;;;;;;;;;;;;;;13.59;100.00;100731.78;3056344;19;20354;-47
2022/10/30 04:53:03;;;;;;;;;;;;;;;13.59;100.00;100737.13;3055677;19;19946;-46
2022/10/30 04:54:08;;;;;;;;;;;;;;;13.58;100.00;100738.09;3055980;19;20318;-49
2022/10/30 04:55:11;;;;;;;;;;;;;;;13.57;100.00;100733.69;3055821;19;20317;-47
2022/10/30 04:56:18;;;;;;;;;;;;;;;13.57;100.00;100734.56;3055508;19;19923;-47
2022/10/30 04:57:20;;;;;;;;;;;;;;;13.57;100.00;100739.94;3055776;19;19915;-52
2022/10/30 04:58:24;;;;;;;;;;;;;;;13.57;100.00;100739.94;3055955;19;19926;-48
2022/10/30 04:59:34;;;;;;;;;;;;;;;13.56;100.00;100737.34;3055540;19;19936;-49
2022/10/30 05:00:39;;;;;;;;;;;;;;;13.55;100.00;100736.47;3055645;19;20326;-47
2022/10/30 05:01:48;;;;;;;;;;;;;;;13.57;100.00;100736.38;3056402;19;20258;-47
2022/10/30 05:02:52;;;;;;;;;;;;;;;13.53;100.00;100732.19;3055295;19;19919;-47
2022/10/30 05:03:57;;;;;;;;;;;;;;;13.53;100.00;100734.88;3056104;19;19990;-51
2022/10/30 05:05:03;;;;;;;;;;;;;;;13.50;100.00;100738.66;3055766;19;20108;-47
2022/10/30 05:06:05;;;;;;;;;;;;;;;13.48;100.00;100745.06;3056130;19;19922;-50
2022/10/30 05:07:10;;;;;;;;;;;;;;;13.47;100.00;100743.34;3055271;19;20039;-45
2022/10/30 05:08:11;;;;;;;;;;;;;;;13.45;100.00;100745.28;3056004;19;20016;-47
2022/10/30 05:09:16;;;;;;;;;;;;;;;13.44;100.00;100748.91;3055763;19;19943;-48
2022/10/30 05:10:18;;;;;;;;;;;;;;;13.43;100.00;100747.19;3055954;19;20419;-48
2022/10/30 05:11:22;;;;;;;;;;;;;;;13.43;100.00;100736.47;3055715;19;20274;-49
2022/10/30 05:12:25;;;;;;;;;;;;;;;13.42;100.00;100740.97;3056241;19;19941;-49
2022/10/30 05:13:30;;;;;;;;;;;;;;;13.41;100.00;100744.63;3055307;19;19922;-47
2022/10/30 05:14:32;;;;;;;;;;;;;;;13.41;100.00;100741.09;3056790;19;19927;-47
2022/10/30 05:15:37;;;;;;;;;;;;;;;13.41;100.00;100738.41;3055941;19;19919;-47
2022/10/30 05:16:39;;;;;;;;;;;;;;;13.41;100.00;100743.75;3055954;19;19923;-49
2022/10/30 05:17:44;;;;;;;;;;;;;;;13.41;100.00;100743.75;3053820;19;20656;-46
2022/10/30 05:18:47;;;;;;;;;;;;;;;13.42;100.00;100745.47;3056120;19;19937;-49
2022/10/30 05:19:51;;;;;;;;;;;;;;;13.44;100.00;100748.91;3054537;19;19950;-49
2022/10/30 05:20:53;;;;;;;;;;;;;;;13.42;100.00;100740.13;3055834;19;19919;-49
2022/10/30 05:21:58;;;;;;;;;;;;;;;13.42;100.00;100742.81;3055398;19;19934;-47
2022/10/30 05:23:00;;;;;;;;;;;;;;;13.44;100.00;100748.91;3055731;19;19926;-50
2022/10/30 05:24:05;;;;;;;;;;;;;;;13.44;100.00;100738.19;3055428;19;19915;-47
2022/10/30 05:25:15;;;;;;;;;;;;;;;13.45;100.00;100734.56;3055784;19;20278;-44
2022/10/30 05:26:20;;;;;;;;;;;;;;;13.47;100.00;100738.84;3055231;19;19923;-51
2022/10/30 05:27:22;;;;;;;;;;;;;;;13.47;100.00;100738.00;3056694;19;19940;-47
2022/10/30 05:28:26;;;;;;;;;;;;;;;13.50;100.00;100735.09;3055131;19;19938;-49
2022/10/30 05:29:30;;;;;;;;;;;;;;;13.52;100.00;100738.53;3055532;19;20436;-47
2022/10/30 05:30:36;;;;;;;;;;;;;;;13.53;100.00;100748.28;3056233;19;19926;-48
2022/10/30 05:31:43;;;;;;;;;;;;;;;13.56;100.00;100748.94;3055639;19;19926;-50
2022/10/30 05:33:07;;;;;;;;;;;;;;;13.56;100.00;100753.44;3055592;19;19978;-52